Aviation Digital Data Service (ADDS)

Output produced by METARs form (0943 UTC 27 July 2016)
found at http://aviationweather.gov/adds/metars/
 
KFNT 270523Z 2706/2806 24004KT P6SM SKC 
     FM271600 26008KT P6SM SCT060 
     FM272100 VRB04KT P6SM SCT045 BKN150 
     PROB30 2721/2723 3SM TSRA BKN040CB 
     FM280200 05006KT P6SM BKN200